sensor_id;sensor_type;location;lat;lon;timestamp;P1;durP1;ratioP1;P2;durP2;ratioP2
12906;SDS011;6521;50.498;8.474;2023-08-21T00:01:50;10.48;;;9.48;;
12906;SDS011;6521;50.498;8.474;2023-08-21T00:04:20;10.35;;;9.50;;
12906;SDS011;6521;50.498;8.474;2023-08-21T00:06:51;11.48;;;10.27;;
12906;SDS011;6521;50.498;8.474;2023-08-21T00:09:22;10.75;;;9.75;;
12906;SDS011;6521;50.498;8.474;2023-08-21T00:11:54;10.30;;;9.43;;
12906;SDS011;6521;50.498;8.474;2023-08-21T00:14:24;10.07;;;9.18;;
12906;SDS011;6521;50.498;8.474;2023-08-21T00:16:55;10.98;;;9.93;;
12906;SDS011;6521;50.498;8.474;2023-08-21T00:19:26;10.63;;;9.70;;
12906;SDS011;6521;50.498;8.474;2023-08-21T00:21:57;11.38;;;10.27;;
12906;SDS011;6521;50.498;8.474;2023-08-21T00:24:27;11.27;;;10.38;;
12906;SDS011;6521;50.498;8.474;2023-08-21T00:26:58;11.10;;;10.07;;
12906;SDS011;6521;50.498;8.474;2023-08-21T00:29:29;10.43;;;9.52;;
12906;SDS011;6521;50.498;8.474;2023-08-21T00:32:01;11.18;;;10.18;;
12906;SDS011;6521;50.498;8.474;2023-08-21T00:34:32;10.70;;;9.80;;
12906;SDS011;6521;50.498;8.474;2023-08-21T00:37:03;10.50;;;9.45;;
12906;SDS011;6521;50.498;8.474;2023-08-21T00:39:33;12.02;;;10.82;;
12906;SDS011;6521;50.498;8.474;2023-08-21T00:42:04;11.88;;;10.48;;
12906;SDS011;6521;50.498;8.474;2023-08-21T00:44:36;12.13;;;11.00;;
12906;SDS011;6521;50.498;8.474;2023-08-21T00:47:07;11.05;;;9.95;;
12906;SDS011;6521;50.498;8.474;2023-08-21T00:49:38;11.13;;;10.13;;
12906;SDS011;6521;50.498;8.474;2023-08-21T00:52:10;11.27;;;10.18;;
12906;SDS011;6521;50.498;8.474;2023-08-21T00:54:43;11.75;;;10.68;;
12906;SDS011;6521;50.498;8.474;2023-08-21T00:57:15;12.25;;;10.52;;
12906;SDS011;6521;50.498;8.474;2023-08-21T00:59:46;11.55;;;10.45;;
12906;SDS011;6521;50.498;8.474;2023-08-21T01:02:17;11.75;;;10.52;;
12906;SDS011;6521;50.498;8.474;2023-08-21T01:04:49;12.43;;;11.32;;
12906;SDS011;6521;50.498;8.474;2023-08-21T01:07:20;11.75;;;10.50;;
12906;SDS011;6521;50.498;8.474;2023-08-21T01:10:04;11.63;;;10.63;;
12906;SDS011;6521;50.498;8.474;2023-08-21T01:12:48;13.50;;;10.73;;
12906;SDS011;6521;50.498;8.474;2023-08-21T01:15:27;11.77;;;9.75;;
12906;SDS011;6521;50.498;8.474;2023-08-21T01:18:00;11.85;;;10.68;;
12906;SDS011;6521;50.498;8.474;2023-08-21T01:20:33;11.35;;;10.35;;
12906;SDS011;6521;50.498;8.474;2023-08-21T01:23:04;12.20;;;10.93;;
12906;SDS011;6521;50.498;8.474;2023-08-21T01:25:38;12.02;;;11.02;;
12906;SDS011;6521;50.498;8.474;2023-08-21T01:28:09;12.55;;;11.35;;
12906;SDS011;6521;50.498;8.474;2023-08-21T01:30:40;13.38;;;11.40;;
12906;SDS011;6521;50.498;8.474;2023-08-21T01:33:12;11.93;;;10.65;;
12906;SDS011;6521;50.498;8.474;2023-08-21T01:35:45;14.82;;;11.95;;
12906;SDS011;6521;50.498;8.474;2023-08-21T01:38:17;12.82;;;11.63;;
12906;SDS011;6521;50.498;8.474;2023-08-21T01:40:49;12.45;;;11.25;;
12906;SDS011;6521;50.498;8.474;2023-08-21T01:43:20;11.95;;;10.82;;
12906;SDS011;6521;50.498;8.474;2023-08-21T01:45:51;12.02;;;10.93;;
12906;SDS011;6521;50.498;8.474;2023-08-21T01:48:21;11.68;;;10.68;;
12906;SDS011;6521;50.498;8.474;2023-08-21T01:50:55;11.75;;;10.48;;
12906;SDS011;6521;50.498;8.474;2023-08-21T01:53:26;10.93;;;9.95;;
12906;SDS011;6521;50.498;8.474;2023-08-21T01:55:57;11.40;;;10.23;;
12906;SDS011;6521;50.498;8.474;2023-08-21T01:58:28;11.13;;;10.10;;
12906;SDS011;6521;50.498;8.474;2023-08-21T02:00:59;10.90;;;9.90;;
12906;SDS011;6521;50.498;8.474;2023-08-21T02:03:30;12.43;;;9.30;;
12906;SDS011;6521;50.498;8.474;2023-08-21T02:06:01;11.10;;;10.00;;
12906;SDS011;6521;50.498;8.474;2023-08-21T02:08:36;11.05;;;9.75;;
12906;SDS011;6521;50.498;8.474;2023-08-21T02:11:07;10.80;;;9.80;;
12906;SDS011;6521;50.498;8.474;2023-08-21T02:13:39;15.48;;;10.35;;
12906;SDS011;6521;50.498;8.474;2023-08-21T02:16:10;11.75;;;10.65;;
12906;SDS011;6521;50.498;8.474;2023-08-21T02:18:41;11.18;;;9.98;;
12906;SDS011;6521;50.498;8.474;2023-08-21T02:21:12;11.70;;;10.43;;
12906;SDS011;6521;50.498;8.474;2023-08-21T02:23:42;11.32;;;10.23;;
12906;SDS011;6521;50.498;8.474;2023-08-21T02:26:14;11.65;;;10.40;;
12906;SDS011;6521;50.498;8.474;2023-08-21T02:28:47;13.05;;;11.13;;
12906;SDS011;6521;50.498;8.474;2023-08-21T02:31:17;13.50;;;11.23;;
12906;SDS011;6521;50.498;8.474;2023-08-21T02:33:48;13.23;;;10.75;;
12906;SDS011;6521;50.498;8.474;2023-08-21T02:36:20;12.98;;;11.68;;
12906;SDS011;6521;50.498;8.474;2023-08-21T02:38:51;12.27;;;11.07;;
12906;SDS011;6521;50.498;8.474;2023-08-21T02:41:21;14.10;;;11.88;;
12906;SDS011;6521;50.498;8.474;2023-08-21T02:43:52;14.80;;;12.57;;
12906;SDS011;6521;50.498;8.474;2023-08-21T02:46:23;13.35;;;12.05;;
12906;SDS011;6521;50.498;8.474;2023-08-21T02:48:53;14.20;;;12.77;;
12906;SDS011;6521;50.498;8.474;2023-08-21T02:51:24;13.13;;;11.93;;
12906;SDS011;6521;50.498;8.474;2023-08-21T02:53:57;12.02;;;10.88;;
12906;SDS011;6521;50.498;8.474;2023-08-21T02:56:28;12.35;;;10.95;;
12906;SDS011;6521;50.498;8.474;2023-08-21T02:59:00;12.93;;;11.80;;
12906;SDS011;6521;50.498;8.474;2023-08-21T03:01:31;13.50;;;12.30;;
12906;SDS011;6521;50.498;8.474;2023-08-21T03:04:02;12.38;;;11.18;;
12906;SDS011;6521;50.498;8.474;2023-08-21T03:06:33;13.27;;;11.98;;
12906;SDS011;6521;50.498;8.474;2023-08-21T03:09:04;14.15;;;11.82;;
12906;SDS011;6521;50.498;8.474;2023-08-21T03:11:35;12.15;;;11.05;;
12906;SDS011;6521;50.498;8.474;2023-08-21T03:14:05;14.13;;;11.27;;
12906;SDS011;6521;50.498;8.474;2023-08-21T03:16:36;12.27;;;10.98;;
12906;SDS011;6521;50.498;8.474;2023-08-21T03:19:07;12.70;;;11.60;;
12906;SDS011;6521;50.498;8.474;2023-08-21T03:21:38;13.27;;;11.10;;
12906;SDS011;6521;50.498;8.474;2023-08-21T03:24:09;13.55;;;10.93;;
12906;SDS011;6521;50.498;8.474;2023-08-21T03:26:40;12.65;;;11.55;;
12906;SDS011;6521;50.498;8.474;2023-08-21T03:29:11;13.05;;;11.85;;
12906;SDS011;6521;50.498;8.474;2023-08-21T03:31:42;12.65;;;10.55;;
12906;SDS011;6521;50.498;8.474;2023-08-21T03:34:13;12.73;;;11.43;;
12906;SDS011;6521;50.498;8.474;2023-08-21T03:36:43;14.25;;;12.88;;
12906;SDS011;6521;50.498;8.474;2023-08-21T03:39:14;17.65;;;12.25;;
12906;SDS011;6521;50.498;8.474;2023-08-21T03:41:48;13.88;;;12.40;;
12906;SDS011;6521;50.498;8.474;2023-08-21T03:44:20;14.27;;;12.50;;
12906;SDS011;6521;50.498;8.474;2023-08-21T03:46:51;12.93;;;11.63;;
12906;SDS011;6521;50.498;8.474;2023-08-21T03:49:22;14.43;;;12.25;;
12906;SDS011;6521;50.498;8.474;2023-08-21T03:51:53;15.10;;;12.93;;
12906;SDS011;6521;50.498;8.474;2023-08-21T03:54:25;13.30;;;12.00;;
12906;SDS011;6521;50.498;8.474;2023-08-21T03:56:56;12.75;;;11.55;;
12906;SDS011;6521;50.498;8.474;2023-08-21T03:59:26;12.70;;;11.50;;
12906;SDS011;6521;50.498;8.474;2023-08-21T04:01:57;13.75;;;12.32;;
12906;SDS011;6521;50.498;8.474;2023-08-21T04:04:28;12.75;;;11.13;;
12906;SDS011;6521;50.498;8.474;2023-08-21T04:06:59;13.95;;;12.55;;
12906;SDS011;6521;50.498;8.474;2023-08-21T04:09:30;13.88;;;11.77;;
12906;SDS011;6521;50.498;8.474;2023-08-21T04:12:01;14.43;;;12.95;;
12906;SDS011;6521;50.498;8.474;2023-08-21T04:14:32;15.02;;;12.07;;
12906;SDS011;6521;50.498;8.474;2023-08-21T04:17:03;17.70;;;12.68;;
12906;SDS011;6521;50.498;8.474;2023-08-21T04:19:34;14.65;;;12.75;;
12906;SDS011;6521;50.498;8.474;2023-08-21T04:22:06;16.95;;;13.18;;
12906;SDS011;6521;50.498;8.474;2023-08-21T04:24:37;14.02;;;12.55;;
12906;SDS011;6521;50.498;8.474;2023-08-21T04:27:08;14.45;;;13.00;;
12906;SDS011;6521;50.498;8.474;2023-08-21T04:29:39;15.80;;;12.25;;
12906;SDS011;6521;50.498;8.474;2023-08-21T04:32:10;13.55;;;12.35;;
12906;SDS011;6521;50.498;8.474;2023-08-21T04:34:43;18.73;;;12.13;;
12906;SDS011;6521;50.498;8.474;2023-08-21T04:37:14;29.42;;;13.30;;
12906;SDS011;6521;50.498;8.474;2023-08-21T04:39:49;20.30;;;13.05;;
12906;SDS011;6521;50.498;8.474;2023-08-21T04:42:21;19.55;;;13.85;;
12906;SDS011;6521;50.498;8.474;2023-08-21T04:44:53;13.93;;;12.50;;
12906;SDS011;6521;50.498;8.474;2023-08-21T04:47:25;14.45;;;12.95;;
12906;SDS011;6521;50.498;8.474;2023-08-21T04:50:00;13.60;;;12.10;;
12906;SDS011;6521;50.498;8.474;2023-08-21T04:52:33;13.75;;;12.48;;
12906;SDS011;6521;50.498;8.474;2023-08-21T04:55:05;23.38;;;12.85;;
12906;SDS011;6521;50.498;8.474;2023-08-21T04:57:40;13.25;;;11.95;;
12906;SDS011;6521;50.498;8.474;2023-08-21T05:00:13;16.05;;;13.98;;
12906;SDS011;6521;50.498;8.474;2023-08-21T05:02:47;14.25;;;12.63;;
12906;SDS011;6521;50.498;8.474;2023-08-21T05:05:18;15.85;;;12.25;;
12906;SDS011;6521;50.498;8.474;2023-08-21T05:07:49;13.32;;;12.00;;
12906;SDS011;6521;50.498;8.474;2023-08-21T05:10:21;13.82;;;12.48;;
12906;SDS011;6521;50.498;8.474;2023-08-21T05:12:52;14.25;;;12.55;;
12906;SDS011;6521;50.498;8.474;2023-08-21T05:15:23;13.60;;;12.30;;
12906;SDS011;6521;50.498;8.474;2023-08-21T05:17:54;16.60;;;12.70;;
12906;SDS011;6521;50.498;8.474;2023-08-21T05:20:26;18.80;;;13.57;;
12906;SDS011;6521;50.498;8.474;2023-08-21T05:22:57;12.85;;;11.65;;
12906;SDS011;6521;50.498;8.474;2023-08-21T05:25:28;17.42;;;12.75;;
12906;SDS011;6521;50.498;8.474;2023-08-21T05:28:01;14.73;;;13.18;;
12906;SDS011;6521;50.498;8.474;2023-08-21T05:30:32;14.52;;;13.05;;
12906;SDS011;6521;50.498;8.474;2023-08-21T05:33:03;13.90;;;12.45;;
12906;SDS011;6521;50.498;8.474;2023-08-21T05:35:35;16.67;;;13.10;;
12906;SDS011;6521;50.498;8.474;2023-08-21T05:38:07;12.80;;;11.50;;
12906;SDS011;6521;50.498;8.474;2023-08-21T05:40:42;13.55;;;12.05;;
12906;SDS011;6521;50.498;8.474;2023-08-21T05:43:13;16.88;;;12.65;;
12906;SDS011;6521;50.498;8.474;2023-08-21T05:45:47;12.85;;;11.65;;
12906;SDS011;6521;50.498;8.474;2023-08-21T05:48:18;16.00;;;12.75;;
12906;SDS011;6521;50.498;8.474;2023-08-21T05:50:52;14.43;;;11.65;;
12906;SDS011;6521;50.498;8.474;2023-08-21T05:53:23;14.48;;;12.98;;
12906;SDS011;6521;50.498;8.474;2023-08-21T05:55:56;12.90;;;11.13;;
12906;SDS011;6521;50.498;8.474;2023-08-21T05:58:28;12.13;;;10.75;;
12906;SDS011;6521;50.498;8.474;2023-08-21T06:01:01;14.70;;;12.15;;
12906;SDS011;6521;50.498;8.474;2023-08-21T06:03:34;11.70;;;10.38;;
12906;SDS011;6521;50.498;8.474;2023-08-21T06:06:23;12.63;;;11.35;;
12906;SDS011;6521;50.498;8.474;2023-08-21T06:08:55;13.90;;;10.57;;
12906;SDS011;6521;50.498;8.474;2023-08-21T06:11:25;11.98;;;10.55;;
12906;SDS011;6521;50.498;8.474;2023-08-21T06:13:56;11.55;;;10.52;;
12906;SDS011;6521;50.498;8.474;2023-08-21T06:16:27;15.05;;;10.70;;
12906;SDS011;6521;50.498;8.474;2023-08-21T06:18:58;13.57;;;9.80;;
12906;SDS011;6521;50.498;8.474;2023-08-21T06:21:28;13.30;;;10.13;;
12906;SDS011;6521;50.498;8.474;2023-08-21T06:23:59;11.02;;;9.95;;
12906;SDS011;6521;50.498;8.474;2023-08-21T06:26:30;10.70;;;9.60;;
12906;SDS011;6521;50.498;8.474;2023-08-21T06:29:01;13.52;;;9.85;;
12906;SDS011;6521;50.498;8.474;2023-08-21T06:31:32;12.18;;;9.20;;
12906;SDS011;6521;50.498;8.474;2023-08-21T06:34:03;11.75;;;10.52;;
12906;SDS011;6521;50.498;8.474;2023-08-21T06:36:34;9.90;;;9.10;;
12906;SDS011;6521;50.498;8.474;2023-08-21T06:39:05;9.85;;;8.88;;
12906;SDS011;6521;50.498;8.474;2023-08-21T06:41:36;11.60;;;9.02;;
12906;SDS011;6521;50.498;8.474;2023-08-21T06:44:08;12.07;;;9.38;;
12906;SDS011;6521;50.498;8.474;2023-08-21T06:46:39;11.35;;;8.38;;
12906;SDS011;6521;50.498;8.474;2023-08-21T06:49:10;10.10;;;9.10;;
12906;SDS011;6521;50.498;8.474;2023-08-21T06:51:41;12.50;;;8.65;;
12906;SDS011;6521;50.498;8.474;2023-08-21T06:54:13;10.68;;;8.25;;
12906;SDS011;6521;50.498;8.474;2023-08-21T06:56:44;14.18;;;8.68;;
12906;SDS011;6521;50.498;8.474;2023-08-21T06:59:14;14.43;;;9.10;;
12906;SDS011;6521;50.498;8.474;2023-08-21T07:01:45;11.18;;;8.50;;
12906;SDS011;6521;50.498;8.474;2023-08-21T07:04:16;10.65;;;7.72;;
12906;SDS011;6521;50.498;8.474;2023-08-21T07:06:47;8.90;;;8.02;;
12906;SDS011;6521;50.498;8.474;2023-08-21T07:09:18;11.00;;;8.63;;
12906;SDS011;6521;50.498;8.474;2023-08-21T07:11:48;12.13;;;8.20;;
12906;SDS011;6521;50.498;8.474;2023-08-21T07:14:19;9.43;;;7.90;;
12906;SDS011;6521;50.498;8.474;2023-08-21T07:16:50;9.70;;;8.70;;
12906;SDS011;6521;50.498;8.474;2023-08-21T07:19:20;9.93;;;8.20;;
12906;SDS011;6521;50.498;8.474;2023-08-21T07:21:51;11.65;;;8.38;;
12906;SDS011;6521;50.498;8.474;2023-08-21T07:24:22;10.85;;;8.48;;
12906;SDS011;6521;50.498;8.474;2023-08-21T07:26:52;10.02;;;8.20;;
12906;SDS011;6521;50.498;8.474;2023-08-21T07:29:23;14.00;;;8.77;;
12906;SDS011;6521;50.498;8.474;2023-08-21T07:31:54;9.05;;;8.13;;
12906;SDS011;6521;50.498;8.474;2023-08-21T07:34:25;12.05;;;8.32;;
12906;SDS011;6521;50.498;8.474;2023-08-21T07:36:56;11.40;;;8.73;;
12906;SDS011;6521;50.498;8.474;2023-08-21T07:39:27;9.02;;;7.95;;
12906;SDS011;6521;50.498;8.474;2023-08-21T07:41:57;11.23;;;8.50;;
12906;SDS011;6521;50.498;8.474;2023-08-21T07:44:28;15.65;;;8.90;;
12906;SDS011;6521;50.498;8.474;2023-08-21T07:46:59;9.15;;;8.20;;
12906;SDS011;6521;50.498;8.474;2023-08-21T07:49:30;11.57;;;7.82;;
12906;SDS011;6521;50.498;8.474;2023-08-21T07:52:02;10.27;;;7.30;;
12906;SDS011;6521;50.498;8.474;2023-08-21T07:54:34;8.57;;;7.30;;
12906;SDS011;6521;50.498;8.474;2023-08-21T07:57:04;7.88;;;7.18;;
12906;SDS011;6521;50.498;8.474;2023-08-21T07:59:35;11.02;;;8.10;;
12906;SDS011;6521;50.498;8.474;2023-08-21T08:02:06;9.45;;;7.82;;
12906;SDS011;6521;50.498;8.474;2023-08-21T08:04:37;11.45;;;7.82;;
12906;SDS011;6521;50.498;8.474;2023-08-21T08:07:08;13.02;;;7.75;;
12906;SDS011;6521;50.498;8.474;2023-08-21T08:09:39;8.05;;;7.32;;
12906;SDS011;6521;50.498;8.474;2023-08-21T08:12:10;11.10;;;8.55;;
12906;SDS011;6521;50.498;8.474;2023-08-21T08:14:41;7.35;;;6.68;;
12906;SDS011;6521;50.498;8.474;2023-08-21T08:17:11;8.55;;;7.78;;
12906;SDS011;6521;50.498;8.474;2023-08-21T08:19:42;10.48;;;7.80;;
12906;SDS011;6521;50.498;8.474;2023-08-21T08:22:13;8.57;;;7.53;;
12906;SDS011;6521;50.498;8.474;2023-08-21T08:24:43;8.73;;;7.07;;
12906;SDS011;6521;50.498;8.474;2023-08-21T08:27:14;7.80;;;6.97;;
12906;SDS011;6521;50.498;8.474;2023-08-21T08:29:45;8.18;;;7.38;;
12906;SDS011;6521;50.498;8.474;2023-08-21T08:32:16;9.82;;;7.20;;
12906;SDS011;6521;50.498;8.474;2023-08-21T08:34:48;7.93;;;7.10;;
12906;SDS011;6521;50.498;8.474;2023-08-21T08:37:19;7.95;;;7.22;;
12906;SDS011;6521;50.498;8.474;2023-08-21T08:39:50;7.60;;;6.95;;
12906;SDS011;6521;50.498;8.474;2023-08-21T08:42:21;7.25;;;6.57;;
12906;SDS011;6521;50.498;8.474;2023-08-21T08:44:52;8.15;;;7.15;;
12906;SDS011;6521;50.498;8.474;2023-08-21T08:47:25;7.53;;;6.82;;
12906;SDS011;6521;50.498;8.474;2023-08-21T08:49:58;7.85;;;7.13;;
12906;SDS011;6521;50.498;8.474;2023-08-21T08:52:30;8.80;;;7.28;;
12906;SDS011;6521;50.498;8.474;2023-08-21T08:55:04;7.72;;;7.03;;
12906;SDS011;6521;50.498;8.474;2023-08-21T08:57:37;7.47;;;6.88;;
12906;SDS011;6521;50.498;8.474;2023-08-21T09:00:08;14.18;;;7.28;;
12906;SDS011;6521;50.498;8.474;2023-08-21T09:02:39;11.73;;;7.50;;
12906;SDS011;6521;50.498;8.474;2023-08-21T09:05:10;12.98;;;7.60;;
12906;SDS011;6521;50.498;8.474;2023-08-21T09:07:41;9.50;;;6.70;;
12906;SDS011;6521;50.498;8.474;2023-08-21T09:10:13;10.02;;;6.75;;
12906;SDS011;6521;50.498;8.474;2023-08-21T09:12:45;16.58;;;7.35;;
12906;SDS011;6521;50.498;8.474;2023-08-21T09:15:17;9.80;;;7.07;;
12906;SDS011;6521;50.498;8.474;2023-08-21T09:17:52;11.18;;;6.80;;
12906;SDS011;6521;50.498;8.474;2023-08-21T09:20:23;10.93;;;6.72;;
12906;SDS011;6521;50.498;8.474;2023-08-21T09:22:54;6.78;;;6.05;;
12906;SDS011;6521;50.498;8.474;2023-08-21T09:25:28;6.65;;;6.05;;
12906;SDS011;6521;50.498;8.474;2023-08-21T09:27:59;7.85;;;6.05;;
12906;SDS011;6521;50.498;8.474;2023-08-21T09:30:29;7.22;;;5.78;;
12906;SDS011;6521;50.498;8.474;2023-08-21T09:33:00;17.15;;;6.40;;
12906;SDS011;6521;50.498;8.474;2023-08-21T09:35:32;5.75;;;5.15;;
12906;SDS011;6521;50.498;8.474;2023-08-21T09:38:03;8.70;;;5.97;;
12906;SDS011;6521;50.498;8.474;2023-08-21T09:40:38;6.53;;;5.80;;
12906;SDS011;6521;50.498;8.474;2023-08-21T09:43:10;7.38;;;5.72;;
12906;SDS011;6521;50.498;8.474;2023-08-21T09:45:42;9.60;;;5.15;;
12906;SDS011;6521;50.498;8.474;2023-08-21T09:48:17;11.02;;;5.05;;
12906;SDS011;6521;50.498;8.474;2023-08-21T09:50:50;5.97;;;5.38;;
12906;SDS011;6521;50.498;8.474;2023-08-21T09:53:22;5.40;;;4.95;;
12906;SDS011;6521;50.498;8.474;2023-08-21T09:55:54;5.90;;;4.95;;
12906;SDS011;6521;50.498;8.474;2023-08-21T09:58:25;7.85;;;5.53;;
12906;SDS011;6521;50.498;8.474;2023-08-21T10:00:57;8.60;;;5.25;;
12906;SDS011;6521;50.498;8.474;2023-08-21T10:03:28;7.47;;;4.70;;
12906;SDS011;6521;50.498;8.474;2023-08-21T10:06:00;7.45;;;5.00;;
12906;SDS011;6521;50.498;8.474;2023-08-21T10:08:32;4.93;;;4.28;;
12906;SDS011;6521;50.498;8.474;2023-08-21T10:11:08;6.45;;;4.32;;
12906;SDS011;6521;50.498;8.474;2023-08-21T10:13:39;10.50;;;4.68;;
12906;SDS011;6521;50.498;8.474;2023-08-21T10:16:11;5.65;;;5.00;;
12906;SDS011;6521;50.498;8.474;2023-08-21T10:18:43;6.15;;;5.00;;
12906;SDS011;6521;50.498;8.474;2023-08-21T10:21:19;5.30;;;4.57;;
12906;SDS011;6521;50.498;8.474;2023-08-21T10:23:54;7.38;;;4.28;;
12906;SDS011;6521;50.498;8.474;2023-08-21T10:26:25;4.50;;;4.10;;
12906;SDS011;6521;50.498;8.474;2023-08-21T10:29:01;7.10;;;4.63;;
12906;SDS011;6521;50.498;8.474;2023-08-21T10:31:34;7.45;;;4.50;;
12906;SDS011;6521;50.498;8.474;2023-08-21T10:34:13;4.80;;;4.35;;
12906;SDS011;6521;50.498;8.474;2023-08-21T10:39:16;5.70;;;3.30;;
12906;SDS011;6521;50.498;8.474;2023-08-21T10:42:00;4.75;;;3.30;;
12906;SDS011;6521;50.498;8.474;2023-08-21T10:47:15;7.47;;;3.70;;
12906;SDS011;6521;50.498;8.474;2023-08-21T10:49:51;11.88;;;3.40;;
12906;SDS011;6521;50.498;8.474;2023-08-21T10:52:24;5.40;;;3.50;;
12906;SDS011;6521;50.498;8.474;2023-08-21T10:54:58;4.28;;;3.85;;
12906;SDS011;6521;50.498;8.474;2023-08-21T10:57:30;7.20;;;3.75;;
12906;SDS011;6521;50.498;8.474;2023-08-21T11:00:05;4.45;;;2.88;;
12906;SDS011;6521;50.498;8.474;2023-08-21T11:02:41;11.20;;;2.78;;
12906;SDS011;6521;50.498;8.474;2023-08-21T11:05:15;7.22;;;3.40;;
12906;SDS011;6521;50.498;8.474;2023-08-21T11:07:47;11.07;;;3.50;;
12906;SDS011;6521;50.498;8.474;2023-08-21T11:10:21;4.40;;;3.60;;
12906;SDS011;6521;50.498;8.474;2023-08-21T11:12:53;5.78;;;3.60;;
12906;SDS011;6521;50.498;8.474;2023-08-21T11:15:26;3.88;;;3.00;;
12906;SDS011;6521;50.498;8.474;2023-08-21T11:17:58;3.50;;;3.20;;
12906;SDS011;6521;50.498;8.474;2023-08-21T11:20:32;6.72;;;3.30;;
12906;SDS011;6521;50.498;8.474;2023-08-21T11:23:05;3.83;;;3.13;;
12906;SDS011;6521;50.498;8.474;2023-08-21T11:25:40;4.88;;;2.95;;
12906;SDS011;6521;50.498;8.474;2023-08-21T11:28:11;4.95;;;2.30;;
12906;SDS011;6521;50.498;8.474;2023-08-21T11:30:46;19.02;;;3.05;;
12906;SDS011;6521;50.498;8.474;2023-08-21T11:33:17;4.25;;;2.40;;
12906;SDS011;6521;50.498;8.474;2023-08-21T11:35:49;4.60;;;2.20;;
12906;SDS011;6521;50.498;8.474;2023-08-21T11:38:21;2.40;;;2.10;;
12906;SDS011;6521;50.498;8.474;2023-08-21T11:43:34;3.72;;;2.22;;
12906;SDS011;6521;50.498;8.474;2023-08-21T11:46:06;2.90;;;2.47;;
12906;SDS011;6521;50.498;8.474;2023-08-21T11:48:38;2.80;;;2.08;;
12906;SDS011;6521;50.498;8.474;2023-08-21T11:51:10;4.60;;;2.10;;
12906;SDS011;6521;50.498;8.474;2023-08-21T11:53:42;4.07;;;2.58;;
12906;SDS011;6521;50.498;8.474;2023-08-21T11:56:14;3.55;;;2.22;;
12906;SDS011;6521;50.498;8.474;2023-08-21T11:58:47;8.38;;;2.75;;
12906;SDS011;6521;50.498;8.474;2023-08-21T12:01:19;5.47;;;2.63;;
12906;SDS011;6521;50.498;8.474;2023-08-21T12:03:50;2.97;;;2.78;;
12906;SDS011;6521;50.498;8.474;2023-08-21T12:06:25;8.85;;;3.00;;
12906;SDS011;6521;50.498;8.474;2023-08-21T12:08:57;3.78;;;2.45;;
12906;SDS011;6521;50.498;8.474;2023-08-21T12:11:28;3.53;;;2.70;;
12906;SDS011;6521;50.498;8.474;2023-08-21T12:13:59;3.38;;;2.55;;
12906;SDS011;6521;50.498;8.474;2023-08-21T12:16:30;3.38;;;2.60;;
12906;SDS011;6521;50.498;8.474;2023-08-21T12:19:00;6.18;;;2.88;;
12906;SDS011;6521;50.498;8.474;2023-08-21T12:21:33;3.30;;;3.00;;
12906;SDS011;6521;50.498;8.474;2023-08-21T12:24:05;3.63;;;2.72;;
12906;SDS011;6521;50.498;8.474;2023-08-21T12:26:36;8.15;;;3.35;;
12906;SDS011;6521;50.498;8.474;2023-08-21T12:29:07;5.30;;;2.72;;
12906;SDS011;6521;50.498;8.474;2023-08-21T12:31:38;3.33;;;2.58;;
12906;SDS011;6521;50.498;8.474;2023-08-21T12:34:09;2.60;;;2.40;;
12906;SDS011;6521;50.498;8.474;2023-08-21T12:36:40;3.15;;;2.42;;
12906;SDS011;6521;50.498;8.474;2023-08-21T12:39:11;3.80;;;2.85;;
12906;SDS011;6521;50.498;8.474;2023-08-21T12:41:42;3.13;;;2.40;;
12906;SDS011;6521;50.498;8.474;2023-08-21T12:44:13;10.02;;;2.78;;
12906;SDS011;6521;50.498;8.474;2023-08-21T12:46:44;3.38;;;2.33;;
12906;SDS011;6521;50.498;8.474;2023-08-21T12:49:15;4.53;;;2.22;;
12906;SDS011;6521;50.498;8.474;2023-08-21T12:51:46;5.38;;;2.40;;
12906;SDS011;6521;50.498;8.474;2023-08-21T12:54:17;3.72;;;2.47;;
12906;SDS011;6521;50.498;8.474;2023-08-21T12:56:49;3.20;;;2.22;;
12906;SDS011;6521;50.498;8.474;2023-08-21T12:59:19;2.35;;;2.08;;
12906;SDS011;6521;50.498;8.474;2023-08-21T13:01:50;14.63;;;2.78;;
12906;SDS011;6521;50.498;8.474;2023-08-21T13:04:22;11.93;;;2.65;;
12906;SDS011;6521;50.498;8.474;2023-08-21T13:06:53;5.72;;;2.42;;
12906;SDS011;6521;50.498;8.474;2023-08-21T13:09:24;2.92;;;2.40;;
12906;SDS011;6521;50.498;8.474;2023-08-21T13:11:55;5.63;;;2.85;;
12906;SDS011;6521;50.498;8.474;2023-08-21T13:14:26;3.40;;;2.60;;
12906;SDS011;6521;50.498;8.474;2023-08-21T13:16:57;2.55;;;2.35;;
12906;SDS011;6521;50.498;8.474;2023-08-21T13:19:27;3.58;;;2.60;;
12906;SDS011;6521;50.498;8.474;2023-08-21T13:21:58;4.15;;;2.20;;
12906;SDS011;6521;50.498;8.474;2023-08-21T13:24:29;3.50;;;2.22;;
12906;SDS011;6521;50.498;8.474;2023-08-21T13:27:00;4.65;;;2.50;;
12906;SDS011;6521;50.498;8.474;2023-08-21T13:29:31;4.28;;;2.15;;
12906;SDS011;6521;50.498;8.474;2023-08-21T13:32:02;6.63;;;2.55;;
12906;SDS011;6521;50.498;8.474;2023-08-21T13:34:34;3.83;;;2.50;;
12906;SDS011;6521;50.498;8.474;2023-08-21T13:37:04;2.92;;;2.33;;
12906;SDS011;6521;50.498;8.474;2023-08-21T13:39:37;5.65;;;2.30;;
12906;SDS011;6521;50.498;8.474;2023-08-21T13:42:07;4.32;;;2.13;;
12906;SDS011;6521;50.498;8.474;2023-08-21T13:44:38;3.67;;;2.38;;
12906;SDS011;6521;50.498;8.474;2023-08-21T13:47:09;4.10;;;2.20;;
12906;SDS011;6521;50.498;8.474;2023-08-21T13:49:40;4.50;;;2.40;;
12906;SDS011;6521;50.498;8.474;2023-08-21T13:52:10;2.95;;;2.50;;
12906;SDS011;6521;50.498;8.474;2023-08-21T13:54:41;2.47;;;2.28;;
12906;SDS011;6521;50.498;8.474;2023-08-21T13:57:12;3.15;;;2.67;;
12906;SDS011;6521;50.498;8.474;2023-08-21T13:59:43;6.53;;;2.40;;
12906;SDS011;6521;50.498;8.474;2023-08-21T14:02:14;2.58;;;2.20;;
12906;SDS011;6521;50.498;8.474;2023-08-21T14:04:45;3.22;;;2.67;;
12906;SDS011;6521;50.498;8.474;2023-08-21T14:07:17;5.55;;;2.90;;
12906;SDS011;6521;50.498;8.474;2023-08-21T14:09:48;3.90;;;2.63;;
12906;SDS011;6521;50.498;8.474;2023-08-21T14:12:19;8.13;;;2.65;;
12906;SDS011;6521;50.498;8.474;2023-08-21T14:14:50;3.08;;;2.58;;
12906;SDS011;6521;50.498;8.474;2023-08-21T14:17:21;5.15;;;3.03;;
12906;SDS011;6521;50.498;8.474;2023-08-21T14:19:52;5.18;;;3.08;;
12906;SDS011;6521;50.498;8.474;2023-08-21T14:22:23;4.53;;;2.85;;
12906;SDS011;6521;50.498;8.474;2023-08-21T14:24:54;3.35;;;2.83;;
12906;SDS011;6521;50.498;8.474;2023-08-21T14:27:25;4.63;;;2.88;;
12906;SDS011;6521;50.498;8.474;2023-08-21T14:29:56;4.97;;;2.92;;
12906;SDS011;6521;50.498;8.474;2023-08-21T14:32:26;4.97;;;2.90;;
12906;SDS011;6521;50.498;8.474;2023-08-21T14:34:57;5.00;;;2.78;;
12906;SDS011;6521;50.498;8.474;2023-08-21T14:37:28;6.07;;;3.25;;
12906;SDS011;6521;50.498;8.474;2023-08-21T14:40:03;5.65;;;3.20;;
12906;SDS011;6521;50.498;8.474;2023-08-21T14:42:38;3.35;;;2.72;;
12906;SDS011;6521;50.498;8.474;2023-08-21T14:45:09;3.03;;;2.78;;
12906;SDS011;6521;50.498;8.474;2023-08-21T14:47:40;3.88;;;2.80;;
12906;SDS011;6521;50.498;8.474;2023-08-21T14:50:10;4.35;;;2.75;;
12906;SDS011;6521;50.498;8.474;2023-08-21T14:52:41;5.15;;;3.10;;
12906;SDS011;6521;50.498;8.474;2023-08-21T14:55:13;2.92;;;2.70;;
12906;SDS011;6521;50.498;8.474;2023-08-21T14:57:46;3.50;;;3.08;;
12906;SDS011;6521;50.498;8.474;2023-08-21T15:00:18;3.38;;;2.70;;
12906;SDS011;6521;50.498;8.474;2023-08-21T15:02:49;5.82;;;3.03;;
12906;SDS011;6521;50.498;8.474;2023-08-21T15:05:20;3.55;;;2.45;;
12906;SDS011;6521;50.498;8.474;2023-08-21T15:07:52;3.25;;;2.60;;
12906;SDS011;6521;50.498;8.474;2023-08-21T15:10:24;5.95;;;3.53;;
12906;SDS011;6521;50.498;8.474;2023-08-21T15:12:55;4.43;;;2.78;;
12906;SDS011;6521;50.498;8.474;2023-08-21T15:15:26;3.03;;;2.78;;
12906;SDS011;6521;50.498;8.474;2023-08-21T15:17:57;3.92;;;2.63;;
12906;SDS011;6521;50.498;8.474;2023-08-21T15:20:28;3.63;;;2.60;;
12906;SDS011;6521;50.498;8.474;2023-08-21T15:22:59;8.10;;;3.05;;